Time;durP1;ratioP1;P1;durP2;ratioP2;P2;SDS_P1;SDS_P2;PMS_P1;PMS_P2;Temp;Humidity;BMP_temperature;BMP_pressure;BME280_temperature;BME280_humidity;BME280_pressure;Samples;Min_cycle;Max_cycle;Signal;HPM_P1;HPM_P2
2023/08/11 00:02:25;;;;;;;7.20;3.20;;;22.10;71.20;;;;;;5056124;28;20029;-68
2023/08/11 00:04:51;;;;;;;6.32;2.67;;;22.10;71.30;;;;;;5061991;28;20040;-70
2023/08/11 00:07:17;;;;;;;8.27;3.47;;;22.10;71.30;;;;;;5059780;28;20584;-71
2023/08/11 00:09:44;;;;;;;9.20;3.60;;;22.10;71.40;;;;;;5054620;28;20067;-70
2023/08/11 00:12:10;;;;;;;9.93;3.13;;;22.10;71.60;;;;;;5061066;28;20078;-70
2023/08/11 00:14:36;;;;;;;8.65;3.03;;;22.10;71.60;;;;;;5059217;28;20035;-69
2023/08/11 00:17:03;;;;;;;11.88;3.92;;;22.10;71.70;;;;;;5057418;28;20109;-70
2023/08/11 00:19:29;;;;;;;11.93;3.90;;;22.00;71.60;;;;;;5056652;28;20128;-71
2023/08/11 00:21:56;;;;;;;9.20;2.50;;;22.00;71.70;;;;;;5059865;28;20733;-70
2023/08/11 00:24:23;;;;;;;8.57;2.75;;;22.00;71.70;;;;;;5040393;28;20037;-70
2023/08/11 00:26:49;;;;;;;8.27;3.45;;;22.00;71.90;;;;;;5063758;28;20484;-72
2023/08/11 00:29:15;;;;;;;6.35;2.72;;;21.90;71.70;;;;;;5057489;28;20036;-70
2023/08/11 00:31:42;;;;;;;5.22;2.58;;;21.90;71.80;;;;;;5057358;28;20036;-69
2023/08/11 00:34:07;;;;;;;6.13;2.67;;;22.00;72.00;;;;;;5055015;28;20106;-69
2023/08/11 00:36:34;;;;;;;6.75;2.90;;;21.90;72.50;;;;;;5057630;28;20202;-69
2023/08/11 00:39:00;;;;;;;6.10;2.88;;;21.90;71.90;;;;;;5058702;28;20835;-69
2023/08/11 00:41:27;;;;;;;8.23;2.50;;;21.90;72.00;;;;;;5064068;28;20085;-70
2023/08/11 00:43:53;;;;;;;4.45;2.67;;;21.90;72.10;;;;;;5060636;28;20510;-68
2023/08/11 00:46:22;;;;;;;4.72;2.25;;;21.90;72.20;;;;;;5065439;28;20028;-69
2023/08/11 00:48:51;;;;;;;5.50;2.90;;;21.90;72.20;;;;;;5056534;28;20403;-69
2023/08/11 00:51:20;;;;;;;5.47;2.63;;;21.90;72.30;;;;;;5063755;28;20485;-69
2023/08/11 00:53:47;;;;;;;6.38;2.00;;;21.90;72.90;;;;;;5068116;28;20089;-69
2023/08/11 00:56:14;;;;;;;7.13;2.38;;;21.90;72.50;;;;;;5044457;28;20035;-69
2023/08/11 00:58:43;;;;;;;3.38;1.92;;;21.90;72.50;;;;;;5077213;28;20080;-69
2023/08/11 01:01:10;;;;;;;7.63;3.25;;;21.90;72.60;;;;;;5060706;28;20032;-70
2023/08/11 01:03:36;;;;;;;4.72;2.78;;;21.90;72.60;;;;;;5062407;28;20037;-69
2023/08/11 01:06:31;;;;;;;4.32;2.40;;;21.90;72.70;;;;;;5063096;28;20494;-69
2023/08/11 01:09:28;;;;;;;5.28;2.05;;;21.90;72.80;;;;;;5051496;28;20024;-70
2023/08/11 01:12:04;;;;;;;3.10;2.00;;;21.90;72.80;;;;;;5058884;28;20024;-70
2023/08/11 01:15:07;;;;;;;3.47;2.38;;;21.90;72.80;;;;;;5076545;28;20040;-72
2023/08/11 01:17:34;;;;;;;;;;;21.80;72.70;;;;;;5060052;28;20032;-72
2023/08/11 01:20:06;;;;;;;5.60;2.88;;;21.80;72.40;;;;;;5062723;28;20061;-69
2023/08/11 01:22:35;;;;;;;3.00;1.83;;;21.80;72.30;;;;;;5061187;28;20055;-69
2023/08/11 01:25:02;;;;;;;6.55;2.95;;;21.80;72.50;;;;;;5060846;28;20119;-72
2023/08/11 01:27:28;;;;;;;6.78;2.17;;;21.80;72.60;;;;;;5062403;28;20036;-70
2023/08/11 01:29:54;;;;;;;4.43;2.35;;;21.80;72.80;;;;;;5064192;28;20033;-71
2023/08/11 01:32:20;;;;;;;6.05;2.67;;;21.80;72.90;;;;;;5060536;28;20400;-70
2023/08/11 01:34:47;;;;;;;3.55;2.15;;;21.80;72.90;;;;;;5062594;28;20032;-70
2023/08/11 01:37:13;;;;;;;6.00;2.38;;;21.80;73.00;;;;;;5059628;28;20508;-70
2023/08/11 01:39:40;;;;;;;4.45;2.08;;;21.80;73.10;;;;;;5058965;28;20049;-68
2023/08/11 01:42:06;;;;;;;4.90;2.78;;;21.80;73.10;;;;;;5062616;28;20042;-68
2023/08/11 01:44:33;;;;;;;3.97;2.25;;;21.80;73.20;;;;;;5064864;28;20126;-68
2023/08/11 01:46:59;;;;;;;2.65;2.05;;;21.80;73.20;;;;;;5061159;28;20086;-68
2023/08/11 01:49:26;;;;;;;3.13;1.67;;;21.80;73.80;;;;;;5055493;28;20047;-68
2023/08/11 01:51:54;;;;;;;3.50;1.98;;;21.80;73.30;;;;;;5062801;28;20077;-70
2023/08/11 01:54:20;;;;;;;4.22;1.65;;;21.80;73.40;;;;;;5062303;28;20024;-68
2023/08/11 01:56:47;;;;;;;4.82;1.80;;;21.80;73.50;;;;;;5053798;28;20479;-68
2023/08/11 01:59:18;;;;;;;2.58;1.40;;;21.80;73.50;;;;;;5066810;28;20680;-68
2023/08/11 02:01:44;;;;;;;3.50;1.48;;;21.70;73.40;;;;;;5060621;28;20043;-68
2023/08/11 02:04:10;;;;;;;2.75;1.30;;;21.70;73.40;;;;;;5065998;28;20027;-67
2023/08/11 02:06:40;;;;;;;1.88;1.30;;;21.70;73.50;;;;;;5062235;28;20032;-67
2023/08/11 02:09:08;;;;;;;2.78;1.75;;;21.70;73.60;;;;;;5056947;28;20058;-68
2023/08/11 02:11:37;;;;;;;2.53;1.20;;;21.70;73.60;;;;;;5060458;28;20041;-68
2023/08/11 02:14:04;;;;;;;2.92;1.30;;;21.70;73.70;;;;;;5065730;28;20519;-68
2023/08/11 02:16:30;;;;;;;2.03;1.00;;;21.70;73.70;;;;;;5064996;28;20111;-68
2023/08/11 02:18:56;;;;;;;2.88;1.30;;;21.70;73.80;;;;;;5067294;28;20397;-68
2023/08/11 02:21:22;;;;;;;1.50;1.38;;;21.70;74.00;;;;;;5064371;28;20563;-69
2023/08/11 02:23:48;;;;;;;2.78;1.52;;;21.70;74.00;;;;;;5064337;28;20032;-69
2023/08/11 02:26:15;;;;;;;2.70;1.20;;;21.70;74.00;;;;;;5063140;28;20068;-69
2023/08/11 02:28:42;;;;;;;3.53;1.80;;;21.70;74.10;;;;;;5067405;28;20028;-69
2023/08/11 02:31:08;;;;;;;2.22;1.30;;;21.60;74.00;;;;;;5061845;28;20116;-69
2023/08/11 02:33:40;;;;;;;3.40;1.40;;;21.60;74.10;;;;;;5066020;28;20035;-69
2023/08/11 02:36:06;;;;;;;4.47;1.50;;;21.60;74.20;;;;;;5063689;28;20048;-70
2023/08/11 02:38:33;;;;;;;3.47;2.08;;;21.60;74.20;;;;;;5062192;28;20036;-68
2023/08/11 02:40:59;;;;;;;3.88;1.42;;;21.60;74.30;;;;;;5062930;28;20021;-68
2023/08/11 02:43:27;;;;;;;3.22;1.70;;;21.60;74.30;;;;;;5067231;28;20044;-69
2023/08/11 02:45:53;;;;;;;5.75;2.25;;;21.60;74.40;;;;;;5063443;28;20044;-68
2023/08/11 02:48:19;;;;;;;6.18;2.25;;;21.60;74.40;;;;;;5058949;28;20075;-68
2023/08/11 02:50:45;;;;;;;8.23;3.13;;;21.60;74.50;;;;;;5061767;28;20491;-71
2023/08/11 02:53:11;;;;;;;8.63;2.42;;;21.60;74.50;;;;;;5059800;28;20534;-71
2023/08/11 02:55:37;;;;;;;8.20;2.35;;;21.60;74.60;;;;;;5061525;28;20056;-71
2023/08/11 02:58:03;;;;;;;8.07;2.85;;;21.50;74.40;;;;;;5061194;28;20033;-71
2023/08/11 03:00:29;;;;;;;6.30;2.83;;;21.50;74.50;;;;;;5063746;28;20035;-72
2023/08/11 03:02:56;;;;;;;6.57;2.75;;;21.50;74.50;;;;;;5060727;28;20127;-71
2023/08/11 03:05:22;;;;;;;7.93;2.80;;;21.50;74.60;;;;;;5061960;28;20024;-71
2023/08/11 03:07:52;;;;;;;7.65;2.38;;;21.50;74.60;;;;;;5055458;28;20028;-70
2023/08/11 03:10:18;;;;;;;10.57;2.97;;;21.40;74.40;;;;;;5056858;28;20025;-71
2023/08/11 03:12:45;;;;;;;7.70;2.53;;;21.40;74.40;;;;;;5065343;28;20043;-70
2023/08/11 03:15:11;;;;;;;10.18;2.85;;;21.40;74.40;;;;;;5062356;28;20401;-70
2023/08/11 03:17:37;;;;;;;6.97;2.78;;;21.40;74.50;;;;;;5064551;28;20025;-70
2023/08/11 03:20:12;;;;;;;7.55;2.88;;;21.30;74.30;;;;;;5062947;28;20107;-70
2023/08/11 03:22:40;;;;;;;8.63;2.60;;;21.30;74.40;;;;;;5062382;28;20024;-70
2023/08/11 03:25:07;;;;;;;7.47;2.75;;;21.30;74.40;;;;;;5067477;28;20036;-70
2023/08/11 03:27:34;;;;;;;8.18;3.05;;;21.30;74.40;;;;;;5064037;28;20048;-67
2023/08/11 03:30:01;;;;;;;7.53;2.60;;;21.20;74.30;;;;;;5050501;28;20108;-67
2023/08/11 03:32:27;;;;;;;8.38;3.10;;;21.20;74.30;;;;;;5060121;28;20034;-66
2023/08/11 03:34:54;;;;;;;8.27;3.03;;;21.20;74.40;;;;;;5066548;28;20044;-67
2023/08/11 03:37:20;;;;;;;6.93;3.22;;;21.20;74.40;;;;;;5059490;28;20035;-66
2023/08/11 03:39:46;;;;;;;8.80;3.08;;;21.20;74.40;;;;;;5064800;28;20706;-69
2023/08/11 03:42:13;;;;;;;7.30;2.53;;;21.20;74.50;;;;;;5062547;28;20074;-67
2023/08/11 03:44:39;;;;;;;8.95;2.85;;;21.10;74.40;;;;;;5065490;28;20051;-67
2023/08/11 03:47:06;;;;;;;7.55;2.88;;;21.10;74.40;;;;;;5061940;28;20793;-67
2023/08/11 03:49:31;;;;;;;7.78;3.45;;;21.10;74.50;;;;;;5058529;28;20032;-67
2023/08/11 03:51:58;;;;;;;6.95;3.28;;;21.00;74.40;;;;;;5058794;28;20579;-67
2023/08/11 03:54:24;;;;;;;10.02;2.92;;;21.10;74.60;;;;;;5063768;28;20557;-69
2023/08/11 03:56:51;;;;;;;6.43;2.67;;;21.00;74.50;;;;;;5056530;28;20029;-69
2023/08/11 03:59:17;;;;;;;8.32;3.20;;;20.90;74.40;;;;;;5065748;28;20040;-69
2023/08/11 04:01:43;;;;;;;8.88;2.70;;;20.90;74.50;;;;;;5062131;28;20561;-72
2023/08/11 04:04:09;;;;;;;7.60;2.72;;;20.90;74.60;;;;;;5065602;28;20028;-70
2023/08/11 04:06:35;;;;;;;9.32;2.72;;;20.80;74.40;;;;;;5062841;28;20028;-70
2023/08/11 04:09:02;;;;;;;6.10;2.42;;;20.80;74.50;;;;;;5056973;28;20691;-70
2023/08/11 04:11:29;;;;;;;4.65;2.63;;;20.80;74.60;;;;;;5054237;28;20033;-68
2023/08/11 04:13:55;;;;;;;6.93;3.78;;;20.80;74.70;;;;;;5067228;28;20116;-67
2023/08/11 04:16:21;;;;;;;5.80;2.85;;;20.80;74.80;;;;;;5064196;28;20028;-68
2023/08/11 04:18:47;;;;;;;9.43;2.85;;;20.70;74.70;;;;;;5067878;28;20412;-69
2023/08/11 04:21:15;;;;;;;6.50;2.22;;;20.70;74.70;;;;;;5062919;28;20086;-68
2023/08/11 04:23:41;;;;;;;9.45;3.47;;;20.70;74.80;;;;;;5067671;28;20055;-68
2023/08/11 04:26:07;;;;;;;9.57;3.72;;;20.70;74.90;;;;;;5067494;28;20024;-68
2023/08/11 04:28:36;;;;;;;7.85;2.80;;;20.60;74.80;;;;;;5064981;28;20822;-68
2023/08/11 04:31:03;;;;;;;7.07;2.40;;;20.60;74.90;;;;;;5061089;28;20036;-67
2023/08/11 04:33:32;;;;;;;6.75;2.20;;;20.50;74.70;;;;;;5067338;28;20551;-68
2023/08/11 04:35:59;;;;;;;5.65;2.50;;;20.50;74.80;;;;;;5067582;28;20044;-68
2023/08/11 04:38:25;;;;;;;6.88;2.60;;;20.50;74.80;;;;;;5062476;28;20205;-68
2023/08/11 04:40:52;;;;;;;5.95;2.40;;;20.50;74.90;;;;;;5059535;28;20113;-67
2023/08/11 04:43:19;;;;;;;6.22;2.63;;;20.50;74.90;;;;;;5070879;28;20024;-68
2023/08/11 04:45:45;;;;;;;5.65;2.15;;;20.50;75.00;;;;;;5063970;28;20123;-67
2023/08/11 04:48:14;;;;;;;5.38;2.28;;;20.40;74.80;;;;;;5059149;28;20017;-67
2023/08/11 04:50:51;;;;;;;8.48;2.72;;;20.40;74.80;;;;;;5066361;28;20041;-68
2023/08/11 04:53:17;;;;;;;6.93;2.90;;;20.40;74.90;;;;;;5066630;28;20067;-69
2023/08/11 04:55:44;;;;;;;5.15;2.38;;;20.40;74.90;;;;;;5066577;28;20084;-68
2023/08/11 04:58:11;;;;;;;6.57;2.58;;;20.40;74.90;;;;;;5068075;28;20508;-69
2023/08/11 05:00:37;;;;;;;5.85;2.75;;;20.40;74.90;;;;;;5062391;28;20405;-67
2023/08/11 05:03:04;;;;;;;7.45;3.25;;;20.40;74.90;;;;;;5063989;28;20023;-68
2023/08/11 05:05:30;;;;;;;4.40;1.90;;;20.30;74.80;;;;;;5057757;28;20033;-69
2023/08/11 05:07:56;;;;;;;9.98;2.95;;;20.30;74.80;;;;;;5060889;28;20120;-69
2023/08/11 05:10:21;;;;;;;6.65;2.30;;;20.30;74.80;;;;;;5061665;28;20047;-70
2023/08/11 05:12:48;;;;;;;5.15;2.15;;;20.30;74.80;;;;;;5065947;28;20032;-69
2023/08/11 05:15:15;;;;;;;8.98;2.85;;;20.30;74.80;;;;;;5065746;28;20036;-71
2023/08/11 05:17:41;;;;;;;8.23;2.78;;;20.30;74.90;;;;;;5066632;28;20369;-72
2023/08/11 05:20:09;;;;;;;6.15;2.47;;;20.30;74.80;;;;;;5066741;28;20063;-71
2023/08/11 05:22:36;;;;;;;5.95;2.17;;;20.30;74.90;;;;;;5065616;28;20072;-69
2023/08/11 05:25:05;;;;;;;6.20;1.92;;;20.30;74.90;;;;;;5063364;28;20118;-69
2023/08/11 05:27:32;;;;;;;7.68;2.10;;;20.30;75.00;;;;;;5060080;28;20036;-69
2023/08/11 05:29:59;;;;;;;6.28;2.90;;;20.30;74.90;;;;;;5056882;28;20036;-69
2023/08/11 05:32:26;;;;;;;7.28;2.80;;;20.30;74.90;;;;;;5056947;28;20045;-68
2023/08/11 05:34:53;;;;;;;5.35;2.10;;;20.30;75.00;;;;;;5055810;28;20504;-71
2023/08/11 05:37:19;;;;;;;8.88;2.70;;;20.30;76.00;;;;;;5062208;28;20642;-68
2023/08/11 05:39:46;;;;;;;9.43;2.35;;;20.40;76.10;;;;;;5057565;28;20173;-68
2023/08/11 05:42:12;;;;;;;9.77;2.55;;;20.40;76.40;;;;;;5050553;28;20366;-69
2023/08/11 05:44:39;;;;;;;6.75;2.70;;;20.50;76.90;;;;;;5055420;28;20062;-69
2023/08/11 05:47:07;;;;;;;7.20;2.55;;;20.60;77.30;;;;;;5048506;28;20499;-71
2023/08/11 05:49:33;;;;;;;8.70;3.45;;;20.70;77.70;;;;;;5060095;28;20039;-68
2023/08/11 05:51:59;;;;;;;3.33;2.13;;;20.80;78.00;;;;;;5058525;28;20392;-69
2023/08/11 05:54:25;;;;;;;4.00;2.33;;;20.90;78.30;;;;;;5057810;28;20524;-69
2023/08/11 05:56:54;;;;;;;6.93;2.58;;;20.90;78.30;;;;;;5054013;28;20043;-69
2023/08/11 05:59:23;;;;;;;6.35;3.20;;;21.00;78.60;;;;;;5059208;28;20038;-69
2023/08/11 06:01:50;;;;;;;7.72;3.05;;;21.00;78.70;;;;;;5058220;28;20040;-69
2023/08/11 06:04:17;;;;;;;4.70;2.75;;;21.10;78.90;;;;;;5043452;28;20040;-69
2023/08/11 06:06:43;;;;;;;8.73;2.80;;;21.20;79.10;;;;;;5064171;28;20028;-69
2023/08/11 06:09:09;;;;;;;5.50;1.95;;;21.20;79.00;;;;;;5050008;28;20378;-69
2023/08/11 06:11:36;;;;;;;7.97;2.75;;;21.30;79.10;;;;;;5056441;28;20039;-69
2023/08/11 06:14:03;;;;;;;3.95;2.00;;;21.40;79.20;;;;;;5058409;28;20078;-69
2023/08/11 06:16:29;;;;;;;5.38;2.47;;;21.40;79.10;;;;;;5049576;28;20511;-69
2023/08/11 06:18:55;;;;;;;6.25;2.72;;;21.50;79.10;;;;;;5060497;28;20131;-70
2023/08/11 06:21:23;;;;;;;6.75;2.20;;;21.50;79.00;;;;;;5053417;28;20456;-70
2023/08/11 06:23:49;;;;;;;3.53;1.88;;;21.60;79.10;;;;;;5056384;28;20494;-70
2023/08/11 06:26:16;;;;;;;5.93;2.33;;;21.50;78.70;;;;;;5061724;28;20215;-70
2023/08/11 06:28:42;;;;;;;10.40;2.60;;;21.50;78.50;;;;;;5054571;28;20582;-71
2023/08/11 06:31:09;;;;;;;4.60;1.77;;;21.50;78.40;;;;;;5063460;28;20036;-69
2023/08/11 06:33:36;;;;;;;7.28;1.92;;;21.50;78.30;;;;;;5053873;28;20047;-70
2023/08/11 06:36:02;;;;;;;5.93;2.30;;;21.50;78.20;;;;;;5061106;28;20056;-70
2023/08/11 06:38:30;;;;;;;7.85;2.50;;;21.50;78.10;;;;;;5053931;28;20138;-71
2023/08/11 06:40:56;;;;;;;8.18;2.45;;;21.50;77.90;;;;;;5058628;28;20043;-71
2023/08/11 06:43:23;;;;;;;5.13;2.25;;;21.60;77.80;;;;;;5057678;28;20044;-70
2023/08/11 06:45:50;;;;;;;6.93;2.80;;;21.60;78.10;;;;;;5059520;28;20036;-70
2023/08/11 06:48:17;;;;;;;7.43;2.25;;;21.60;77.30;;;;;;5053855;28;20055;-70
2023/08/11 06:50:43;;;;;;;6.60;2.25;;;21.60;77.10;;;;;;5058197;28;20033;-70
2023/08/11 06:53:10;;;;;;;4.85;2.35;;;21.60;77.00;;;;;;5062892;28;20036;-70
2023/08/11 06:55:36;;;;;;;3.72;1.88;;;21.70;77.10;;;;;;5062176;28;20520;-70
2023/08/11 06:58:02;;;;;;;6.90;2.40;;;21.70;76.90;;;;;;5061197;28;20064;-71
2023/08/11 07:00:28;;;;;;;4.93;2.22;;;21.70;76.70;;;;;;5063227;28;20040;-70
2023/08/11 07:02:55;;;;;;;5.97;2.13;;;21.80;76.70;;;;;;5056984;28;20041;-70
2023/08/11 07:05:21;;;;;;;5.63;2.47;;;21.90;76.60;;;;;;5063347;28;20548;-70
2023/08/11 07:07:47;;;;;;;7.72;2.85;;;22.00;76.60;;;;;;5053883;28;20032;-70
2023/08/11 07:10:14;;;;;;;6.50;2.30;;;22.00;76.30;;;;;;5056833;28;20093;-70
2023/08/11 07:12:44;;;;;;;10.25;3.38;;;22.00;76.00;;;;;;5058791;28;20477;-71
2023/08/11 07:15:10;;;;;;;8.80;2.60;;;22.10;75.90;;;;;;5056023;28;20166;-69
2023/08/11 07:17:36;;;;;;;9.15;3.00;;;22.20;75.80;;;;;;5057822;28;20520;-70
2023/08/11 07:20:03;;;;;;;5.63;1.80;;;22.30;75.60;;;;;;5058016;28;20040;-70
2023/08/11 07:22:30;;;;;;;9.55;2.58;;;22.40;75.40;;;;;;5056893;28;20117;-70
2023/08/11 07:24:56;;;;;;;7.10;2.10;;;22.60;75.30;;;;;;5054846;28;20036;-70
2023/08/11 07:27:22;;;;;;;5.35;2.25;;;22.70;75.00;;;;;;5060132;28;20050;-72
2023/08/11 07:29:48;;;;;;;8.02;2.78;;;22.90;74.90;;;;;;5062351;28;20116;-70
2023/08/11 07:32:14;;;;;;;8.35;1.85;;;23.00;74.60;;;;;;5076716;28;20511;-70
2023/08/11 07:34:41;;;;;;;6.85;2.00;;;23.10;74.40;;;;;;5059043;28;20864;-70
2023/08/11 07:37:07;;;;;;;7.20;2.53;;;23.20;74.20;;;;;;5059207;28;20090;-70
2023/08/11 07:39:33;;;;;;;8.88;2.33;;;23.30;74.00;;;;;;5053917;28;20735;-71
2023/08/11 07:42:02;;;;;;;7.97;2.08;;;23.30;73.70;;;;;;5058097;28;20119;-71
2023/08/11 07:44:30;;;;;;;6.35;2.63;;;23.40;73.70;;;;;;5062726;28;20060;-69
2023/08/11 07:46:57;;;;;;;6.00;2.28;;;23.50;73.60;;;;;;5057925;28;20042;-70
2023/08/11 07:49:26;;;;;;;8.75;2.83;;;23.50;73.30;;;;;;5061443;28;20459;-70
2023/08/11 07:51:54;;;;;;;7.85;2.10;;;23.60;73.20;;;;;;5052633;28;20037;-70
2023/08/11 07:54:22;;;;;;;7.13;3.05;;;23.60;73.10;;;;;;5056824;28;20032;-70
2023/08/11 07:56:48;;;;;;;10.52;2.92;;;23.80;73.10;;;;;;5065073;28;20271;-70
2023/08/11 07:59:15;;;;;;;6.32;2.55;;;23.90;73.00;;;;;;5062386;28;20481;-70
2023/08/11 08:01:42;;;;;;;9.90;3.08;;;24.10;72.80;;;;;;5059597;28;20489;-70
2023/08/11 08:04:10;;;;;;;4.25;2.33;;;24.30;72.50;;;;;;5061600;28;20028;-71
2023/08/11 08:06:43;;;;;;;6.45;2.95;;;24.40;72.10;;;;;;5059766;28;20493;-71
2023/08/11 08:09:11;;;;;;;8.52;3.05;;;24.50;72.30;;;;;;5049534;28;20352;-70
2023/08/11 08:11:43;;;;;;;9.02;2.83;;;24.60;71.60;;;;;;5058480;28;20033;-70
2023/08/11 08:14:11;;;;;;;8.57;2.67;;;24.60;71.40;;;;;;5061568;28;20037;-70
2023/08/11 08:16:46;;;;;;;8.88;3.20;;;24.50;71.20;;;;;;5054963;28;20118;-70
2023/08/11 08:19:14;;;;;;;9.63;2.45;;;24.50;71.20;;;;;;5061074;28;20040;-71
2023/08/11 08:21:41;;;;;;;5.18;2.35;;;24.50;71.20;;;;;;5058830;28;20093;-71
2023/08/11 08:24:08;;;;;;;7.88;2.80;;;24.40;71.50;;;;;;5056599;28;20041;-71
2023/08/11 08:26:35;;;;;;;8.30;3.10;;;24.50;71.10;;;;;;5056606;28;20089;-71
2023/08/11 08:29:01;;;;;;;7.47;2.85;;;24.50;71.00;;;;;;5059060;28;20179;-70
2023/08/11 08:31:28;;;;;;;6.30;2.90;;;24.50;70.90;;;;;;5055913;28;20518;-70
2023/08/11 08:33:57;;;;;;;9.63;2.65;;;24.50;71.30;;;;;;5054177;28;20488;-70
2023/08/11 08:36:24;;;;;;;6.47;2.13;;;24.50;70.60;;;;;;5056209;28;20455;-71
2023/08/11 08:38:51;;;;;;;15.52;4.78;;;24.60;70.60;;;;;;5052291;28;20040;-71
2023/08/11 08:41:30;;;;;;;6.70;2.30;;;24.60;70.40;;;;;;5054700;28;20102;-71
2023/08/11 08:44:00;;;;;;;5.43;2.03;;;24.70;70.20;;;;;;5067935;28;20031;-70
2023/08/11 08:46:30;;;;;;;5.45;2.38;;;24.80;70.20;;;;;;5059416;28;20176;-70
2023/08/11 08:49:25;;;;;;;6.32;2.28;;;24.80;70.00;;;;;;5053362;28;20036;-71
2023/08/11 08:51:56;;;;;;;7.90;2.45;;;24.80;69.60;;;;;;5048148;28;20099;-71
2023/08/11 08:54:23;;;;;;;4.68;2.00;;;25.00;69.80;;;;;;5056810;28;20213;-70
2023/08/11 08:56:54;;;;;;;5.68;2.45;;;25.00;69.40;;;;;;5062482;28;20028;-70
2023/08/11 08:59:21;;;;;;;5.70;2.17;;;25.10;69.00;;;;;;5049427;28;20033;-71
2023/08/11 09:01:51;;;;;;;5.65;2.13;;;25.10;68.70;;;;;;5056469;28;20047;-73
2023/08/11 09:04:20;;;;;;;5.93;2.45;;;25.20;68.40;;;;;;5062418;28;20046;-70
2023/08/11 09:06:47;;;;;;;5.82;2.28;;;25.20;68.10;;;;;;5061097;28;21071;-69
2023/08/11 09:09:16;;;;;;;6.70;2.80;;;25.20;68.00;;;;;;5053097;28;20036;-69
2023/08/11 09:11:43;;;;;;;10.80;3.53;;;25.30;68.00;;;;;;5061442;28;20042;-69
2023/08/11 09:14:13;;;;;;;10.70;4.20;;;25.40;68.20;;;;;;5062873;28;20395;-70
2023/08/11 09:16:39;;;;;;;7.00;2.95;;;25.50;68.20;;;;;;5060511;28;20095;-71
2023/08/11 09:19:10;;;;;;;6.20;3.03;;;25.60;68.10;;;;;;5061112;28;20036;-70
2023/08/11 09:21:36;;;;;;;6.40;3.00;;;25.80;67.70;;;;;;5062245;28;20028;-70
2023/08/11 09:24:04;;;;;;;7.45;2.88;;;25.90;67.30;;;;;;5060769;28;20044;-70
2023/08/11 09:26:30;;;;;;;9.05;3.50;;;26.00;66.90;;;;;;5064013;28;20063;-71
2023/08/11 09:28:56;;;;;;;5.13;2.25;;;26.20;66.60;;;;;;5064368;28;20111;-71
2023/08/11 09:31:24;;;;;;;9.85;3.40;;;26.30;66.40;;;;;;5068117;28;20438;-70
2023/08/11 09:33:51;;;;;;;9.57;3.10;;;26.30;66.00;;;;;;5060857;28;20024;-70
2023/08/11 09:36:20;;;;;;;8.52;3.10;;;26.30;65.90;;;;;;5067535;28;20040;-71
2023/08/11 09:39:04;;;;;;;5.03;2.10;;;26.30;65.80;;;;;;5057734;28;20063;-70
2023/08/11 09:41:31;;;;;;;5.72;2.58;;;26.40;65.50;;;;;;5062592;28;20111;-70
2023/08/11 09:43:59;;;;;;;7.00;2.80;;;26.60;65.10;;;;;;5059865;28;20032;-70
2023/08/11 09:46:25;;;;;;;6.93;2.53;;;26.60;64.70;;;;;;5064554;28;20480;-70
2023/08/11 09:48:54;;;;;;;5.80;2.40;;;26.70;64.50;;;;;;5064756;28;20043;-71
2023/08/11 09:51:21;;;;;;;11.23;3.35;;;26.80;64.20;;;;;;5059031;28;20123;-70
2023/08/11 09:53:47;;;;;;;4.78;2.13;;;26.90;63.90;;;;;;5058943;28;20243;-70
2023/08/11 09:56:16;;;;;;;6.32;2.22;;;27.00;63.60;;;;;;5053530;28;20043;-70
2023/08/11 09:58:47;;;;;;;7.22;2.60;;;27.20;63.50;;;;;;5064278;28;20040;-70
2023/08/11 10:01:16;;;;;;;7.13;2.80;;;27.30;63.40;;;;;;5057221;28;20038;-70
2023/08/11 10:03:45;;;;;;;6.05;2.38;;;27.40;63.20;;;;;;5058685;28;20035;-70
2023/08/11 10:06:16;;;;;;;5.05;2.17;;;27.50;63.00;;;;;;5059948;28;20036;-70
2023/08/11 10:08:44;;;;;;;6.10;3.13;;;27.50;62.80;;;;;;5049368;28;20040;-70
2023/08/11 10:11:12;;;;;;;6.22;2.45;;;27.60;62.70;;;;;;5053155;28;20041;-70
2023/08/11 10:13:40;;;;;;;5.22;2.22;;;27.70;62.50;;;;;;5055559;28;20037;-70
2023/08/11 10:16:14;;;;;;;4.50;1.88;;;27.80;62.30;;;;;;5062608;28;20067;-71
2023/08/11 10:18:42;;;;;;;7.13;2.80;;;27.90;62.10;;;;;;5056760;28;20101;-70
2023/08/11 10:21:08;;;;;;;7.00;2.45;;;27.90;61.80;;;;;;5058013;28;20031;-70
2023/08/11 10:23:35;;;;;;;6.55;2.80;;;28.00;61.80;;;;;;5056825;28;20506;-70
2023/08/11 10:26:02;;;;;;;6.00;2.35;;;28.10;61.90;;;;;;5054799;28;20025;-70
2023/08/11 10:28:28;;;;;;;7.18;2.80;;;28.10;61.70;;;;;;5055774;28;20790;-70
2023/08/11 10:30:56;;;;;;;7.68;2.60;;;28.20;61.60;;;;;;5049676;28;20040;-69
2023/08/11 10:33:23;;;;;;;6.60;2.88;;;28.30;61.70;;;;;;5055354;28;20112;-69
2023/08/11 10:35:51;;;;;;;5.55;2.40;;;28.40;61.60;;;;;;5055779;28;20056;-69
2023/08/11 10:38:32;;;;;;;4.80;2.25;;;28.40;61.60;;;;;;5041300;28;20059;-70
2023/08/11 10:41:07;;;;;;;5.15;2.28;;;28.50;61.60;;;;;;5056078;28;20457;-70
2023/08/11 10:43:41;;;;;;;3.33;1.60;;;28.50;61.60;;;;;;5057163;28;20137;-70
2023/08/11 10:46:24;;;;;;;4.43;1.88;;;28.60;61.80;;;;;;5044699;28;20125;-70
2023/08/11 10:48:56;;;;;;;6.60;1.92;;;28.60;61.70;;;;;;5048450;28;20025;-70
2023/08/11 10:51:28;;;;;;;7.25;2.65;;;28.60;61.60;;;;;;5059157;28;20085;-70
2023/08/11 10:54:09;;;;;;;4.95;2.53;;;28.70;61.50;;;;;;5058404;28;20033;-69
2023/08/11 10:56:37;;;;;;;5.40;2.13;;;28.80;61.30;;;;;;5064113;28;20054;-70
2023/08/11 10:59:08;;;;;;;8.23;2.78;;;28.90;61.10;;;;;;5059556;28;20522;-70
2023/08/11 11:01:38;;;;;;;4.97;2.28;;;28.90;60.80;;;;;;5069672;28;20072;-70
2023/08/11 11:04:06;;;;;;;3.58;1.52;;;29.00;60.60;;;;;;5061971;28;20560;-71
2023/08/11 11:06:33;;;;;;;4.57;2.05;;;29.00;60.50;;;;;;5064699;28;20048;-70
2023/08/11 11:08:59;;;;;;;6.18;2.72;;;29.10;60.50;;;;;;5048685;28;20114;-71
2023/08/11 11:11:28;;;;;;;4.55;2.00;;;29.20;60.20;;;;;;5053504;28;20627;-70
2023/08/11 11:13:54;;;;;;;6.07;2.05;;;29.20;60.00;;;;;;5065504;28;20043;-70
2023/08/11 11:16:21;;;;;;;5.38;2.22;;;29.20;59.70;;;;;;5061596;28;20074;-70
2023/08/11 11:18:50;;;;;;;4.28;2.50;;;29.30;59.40;;;;;;5054072;28;20041;-70
2023/08/11 11:21:20;;;;;;;5.15;2.30;;;29.30;59.70;;;;;;5059260;28;20025;-70
2023/08/11 11:23:50;;;;;;;4.95;1.98;;;29.30;58.60;;;;;;5061894;28;20032;-70
2023/08/11 11:26:25;;;;;;;4.75;2.17;;;29.40;58.50;;;;;;5060675;28;20086;-70
2023/08/11 11:28:52;;;;;;;5.10;2.17;;;29.40;58.30;;;;;;5078665;28;20056;-70
2023/08/11 11:31:21;;;;;;;3.95;1.58;;;29.40;58.40;;;;;;5060671;28;20472;-70
2023/08/11 11:33:49;;;;;;;5.00;1.90;;;29.50;58.40;;;;;;5062169;28;20040;-70
2023/08/11 11:36:22;;;;;;;6.50;1.88;;;29.40;58.30;;;;;;5073635;28;20055;-71
2023/08/11 11:38:52;;;;;;;5.25;2.38;;;29.40;58.30;;;;;;5054026;28;20036;-70
2023/08/11 11:41:19;;;;;;;5.32;1.90;;;29.40;58.30;;;;;;5057950;28;20107;-70
2023/08/11 11:43:48;;;;;;;5.60;1.73;;;29.40;58.30;;;;;;5058425;28;20028;-71
2023/08/11 11:46:16;;;;;;;6.00;2.30;;;29.40;58.20;;;;;;5060041;28;20031;-71
2023/08/11 11:48:49;;;;;;;4.88;1.73;;;29.50;57.90;;;;;;5058691;28;20089;-70
2023/08/11 11:51:16;;;;;;;;;;;29.50;57.50;;;;;;5061260;28;21124;-70
2023/08/11 11:53:43;;;;;;;7.15;2.75;;;29.60;57.80;;;;;;5065634;28;19917;-70
2023/08/11 11:56:14;;;;;;;6.32;1.85;;;29.60;57.70;;;;;;5059786;28;20067;-71
2023/08/11 11:58:41;;;;;;;5.93;2.22;;;29.60;57.40;;;;;;5054574;28;20622;-70
2023/08/11 12:01:13;;;;;;;4.28;1.45;;;29.60;57.60;;;;;;5058300;28;20040;-70
2023/08/11 12:03:39;;;;;;;3.50;1.95;;;29.60;57.50;;;;;;5057944;28;20063;-70
2023/08/11 12:06:09;;;;;;;4.57;2.28;;;29.70;57.60;;;;;;5064313;28;20040;-70
2023/08/11 12:08:39;;;;;;;3.88;1.83;;;29.70;57.40;;;;;;5050006;28;20037;-71
2023/08/11 12:11:07;;;;;;;4.72;2.15;;;29.80;57.40;;;;;;5053267;28;20475;-71
2023/08/11 12:13:38;;;;;;;6.78;2.50;;;29.90;57.30;;;;;;5057363;28;20047;-70
2023/08/11 12:16:09;;;;;;;4.72;1.95;;;30.00;56.80;;;;;;5054196;28;20387;-70
2023/08/11 12:18:37;;;;;;;5.25;2.28;;;30.00;56.60;;;;;;5056753;28;20155;-70
2023/08/11 12:21:04;;;;;;;3.83;1.67;;;30.10;56.80;;;;;;5055796;28;20267;-70
2023/08/11 12:23:31;;;;;;;4.90;1.73;;;30.10;56.90;;;;;;5054484;28;20037;-70
2023/08/11 12:25:58;;;;;;;4.97;2.08;;;30.10;56.90;;;;;;5057126;28;20029;-70
2023/08/11 12:28:26;;;;;;;3.85;1.73;;;30.10;56.80;;;;;;5056674;28;20033;-70
2023/08/11 12:30:52;;;;;;;4.40;1.85;;;30.20;56.90;;;;;;5055145;28;20424;-71
2023/08/11 12:33:19;;;;;;;4.45;1.77;;;30.20;56.80;;;;;;5057468;28;20520;-70
2023/08/11 12:35:46;;;;;;;4.82;1.60;;;30.20;56.70;;;;;;5056146;28;20458;-70
2023/08/11 12:38:12;;;;;;;3.22;1.88;;;30.30;56.70;;;;;;5057587;28;20037;-70
2023/08/11 12:40:43;;;;;;;3.35;1.52;;;30.30;56.60;;;;;;5061260;28;20131;-70
2023/08/11 12:43:10;;;;;;;3.70;1.38;;;30.40;56.50;;;;;;5059791;28;20028;-70
2023/08/11 12:45:37;;;;;;;2.00;1.40;;;30.50;56.40;;;;;;5064560;28;20119;-70
2023/08/11 12:48:04;;;;;;;4.20;1.65;;;30.70;56.40;;;;;;5065778;28;20040;-70
2023/08/11 12:50:33;;;;;;;3.75;1.17;;;30.70;56.90;;;;;;5060820;28;20511;-70
2023/08/11 12:53:00;;;;;;;3.50;1.40;;;30.90;56.30;;;;;;5060568;28;20480;-70